Terminal Aerodrome Forecast
Issued by NWS Quad Cities IA IL

Home | Current Version | Previous Version | Text Only | Print | Product List | Glossary On
Versions: 1 2 3 4 5 6 7 8 9 10 11 12 13
000
FTUS43 KDVN 011357 AAB
TAFMLI
TAF AMD
KMLI 011357Z 0114/0212 21005KT 6SM HZ FEW040 SCT250
      TEMPO 0208/0212 5SM BR=

USA.gov is the U.S. government's official web portal to all federal, state and local government web resources and services.